Time;durP1;ratioP1;P1;durP2;ratioP2;P2;SDS_P1;SDS_P2;PMS_P1;PMS_P2;Temp;Humidity;BMP_temperature;BMP_pressure;BME280_temperature;BME280_humidity;BME280_pressure;Samples;Min_cycle;Max_cycle;Signal;HPM_P1;HPM_P2
2021/10/30 00:00:13;;;;;;;32.50;20.10;;;;;;;;;;139436;1190;97545;-76
2021/10/30 00:03:37;;;;;;;31.50;19.10;;;;;;;;;;139284;1192;97148;-76
2021/10/30 00:06:41;;;;;;;31.30;19.30;;;;;;;;;;139190;1190;96332;-75
2021/10/30 00:09:45;;;;;;;31.60;18.80;;;;;;;;;;139202;1190;96422;-80
2021/10/30 00:12:49;;;;;;;29.30;17.90;;;;;;;;;;139278;1192;97558;-81
2021/10/30 00:15:54;;;;;;;28.20;18.10;;;;;;;;;;139271;1190;96293;-82
2021/10/30 00:18:58;;;;;;;29.90;17.90;;;;;;;;;;139340;1190;96401;-82
2021/10/30 00:22:02;;;;;;;29.90;17.80;;;;;;;;;;139368;1190;96415;-81
2021/10/30 00:25:06;;;;;;;31.40;18.50;;;;;;;;;;139319;1190;97191;-81
2021/10/30 00:28:10;;;;;;;31.30;17.10;;;;;;;;;;139293;1191;96661;-83
2021/10/30 00:31:15;;;;;;;28.20;16.00;;;;;;;;;;139243;1194;96370;-81
2021/10/30 00:34:18;;;;;;;30.60;17.70;;;;;;;;;;139286;1191;96338;-81
2021/10/30 00:37:22;;;;;;;30.90;18.40;;;;;;;;;;139277;1182;96403;-84
2021/10/30 00:40:26;;;;;;;30.70;18.00;;;;;;;;;;139357;1189;96319;-84
2021/10/30 00:43:30;;;;;;;30.50;18.60;;;;;;;;;;139271;1190;97553;-85
2021/10/30 00:46:34;;;;;;;31.00;19.20;;;;;;;;;;139352;1191;96336;-84
2021/10/30 00:49:38;;;;;;;32.30;19.00;;;;;;;;;;139186;1195;97570;-78
2021/10/30 00:52:42;;;;;;;28.90;18.80;;;;;;;;;;139229;1189;97610;-80
2021/10/30 00:55:47;;;;;;;29.90;18.40;;;;;;;;;;139192;1190;96740;-81
2021/10/30 00:58:51;;;;;;;30.10;18.10;;;;;;;;;;139134;1194;97585;-77
2021/10/30 01:01:55;;;;;;;32.10;18.40;;;;;;;;;;139160;1191;97562;-78
2021/10/30 01:04:59;;;;;;;30.60;19.10;;;;;;;;;;139070;1190;96310;-78
2021/10/30 01:08:03;;;;;;;31.70;19.10;;;;;;;;;;139147;1190;96356;-77
2021/10/30 01:11:07;;;;;;;33.40;19.20;;;;;;;;;;139200;1190;97665;-78
2021/10/30 01:14:11;;;;;;;31.00;17.50;;;;;;;;;;139171;1190;97579;-76
2021/10/30 01:17:15;;;;;;;35.90;17.60;;;;;;;;;;139122;1190;97118;-77
2021/10/30 01:20:21;;;;;;;33.50;19.00;;;;;;;;;;139326;1196;97030;-77
2021/10/30 01:23:24;;;;;;;33.50;18.90;;;;;;;;;;139264;1189;96296;-75
2021/10/30 01:26:29;;;;;;;35.10;18.30;;;;;;;;;;139209;1190;96387;-76
2021/10/30 01:29:35;;;;;;;31.00;18.50;;;;;;;;;;139223;1196;97150;-77
2021/10/30 01:32:39;;;;;;;32.70;18.80;;;;;;;;;;139206;1189;97613;-77
2021/10/30 01:35:43;;;;;;;31.70;19.40;;;;;;;;;;139221;1189;96395;-81
2021/10/30 01:38:48;;;;;;;33.70;18.80;;;;;;;;;;139385;1196;96305;-80
2021/10/30 01:41:51;;;;;;;30.80;18.10;;;;;;;;;;139418;1189;96897;-81
2021/10/30 01:44:56;;;;;;;30.30;18.50;;;;;;;;;;139354;1189;96387;-81
2021/10/30 01:48:00;;;;;;;28.90;18.90;;;;;;;;;;139301;1189;97576;-82
2021/10/30 01:51:05;;;;;;;31.70;19.10;;;;;;;;;;139347;1189;96662;-80
2021/10/30 01:54:09;;;;;;;28.70;16.50;;;;;;;;;;139375;1181;96467;-80
2021/10/30 01:57:13;;;;;;;27.60;16.60;;;;;;;;;;139319;1193;96320;-79
2021/10/30 02:00:18;;;;;;;29.90;17.10;;;;;;;;;;139260;1190;96394;-77
2021/10/30 02:03:23;;;;;;;31.10;18.40;;;;;;;;;;139263;1189;96278;-80
2021/10/30 02:06:27;;;;;;;30.60;18.30;;;;;;;;;;139231;1191;96394;-77
2021/10/30 02:09:30;;;;;;;29.50;18.10;;;;;;;;;;139319;1189;96294;-78
2021/10/30 02:12:35;;;;;;;31.90;18.30;;;;;;;;;;139262;1189;97148;-78
2021/10/30 02:15:39;;;;;;;29.30;17.00;;;;;;;;;;139249;1189;96292;-78
2021/10/30 02:18:43;;;;;;;26.20;16.80;;;;;;;;;;139246;1181;97595;-79
2021/10/30 02:21:47;;;;;;;27.30;16.60;;;;;;;;;;139252;1189;97556;-79
2021/10/30 02:24:51;;;;;;;29.80;16.60;;;;;;;;;;139292;1196;97152;-79
2021/10/30 02:27:55;;;;;;;29.20;18.10;;;;;;;;;;139282;1196;97287;-77
2021/10/30 02:30:59;;;;;;;29.30;17.80;;;;;;;;;;139212;1190;96671;-77
2021/10/30 02:34:03;;;;;;;27.00;16.70;;;;;;;;;;139229;1189;96277;-75
2021/10/30 02:37:11;;;;;;;30.30;18.20;;;;;;;;;;139290;1196;96353;-77
2021/10/30 02:40:14;;;;;;;28.50;15.70;;;;;;;;;;139332;1188;97594;-77
2021/10/30 02:43:18;;;;;;;28.80;15.70;;;;;;;;;;139253;1190;97527;-79
2021/10/30 02:46:23;;;;;;;25.70;15.30;;;;;;;;;;139237;1189;96282;-79
2021/10/30 02:49:27;;;;;;;30.00;16.10;;;;;;;;;;139265;1192;96303;-78
2021/10/30 02:52:31;;;;;;;25.40;15.30;;;;;;;;;;139225;1190;96303;-76
2021/10/30 02:55:35;;;;;;;26.10;16.10;;;;;;;;;;139233;1196;97141;-76
2021/10/30 02:58:39;;;;;;;27.40;16.20;;;;;;;;;;139266;1190;96303;-79
2021/10/30 03:01:45;;;;;;;29.30;16.60;;;;;;;;;;139298;1196;97108;-78
2021/10/30 03:04:49;;;;;;;27.90;17.20;;;;;;;;;;139377;1189;97560;-78
2021/10/30 03:07:53;;;;;;;26.40;16.90;;;;;;;;;;139251;1190;96601;-76
2021/10/30 03:10:57;;;;;;;28.60;17.00;;;;;;;;;;139254;1193;96322;-75
2021/10/30 03:14:01;;;;;;;28.30;16.50;;;;;;;;;;139298;1189;97557;-76
2021/10/30 03:17:05;;;;;;;25.70;16.40;;;;;;;;;;139230;1196;97255;-77
2021/10/30 03:20:11;;;;;;;28.50;16.90;;;;;;;;;;139291;1189;97592;-78
2021/10/30 03:23:15;;;;;;;28.20;16.70;;;;;;;;;;139329;1190;96283;-77
2021/10/30 03:26:19;;;;;;;27.90;15.90;;;;;;;;;;139253;1193;96288;-74
2021/10/30 03:29:23;;;;;;;27.80;15.20;;;;;;;;;;139264;1189;97579;-76
2021/10/30 03:32:27;;;;;;;27.60;15.70;;;;;;;;;;139286;1190;96293;-77
2021/10/30 03:35:31;;;;;;;27.10;16.30;;;;;;;;;;139273;1189;96783;-75
2021/10/30 03:38:35;;;;;;;27.20;16.40;;;;;;;;;;139247;1190;97570;-76
2021/10/30 03:41:39;;;;;;;28.20;16.20;;;;;;;;;;139203;1190;97560;-76
2021/10/30 03:44:43;;;;;;;27.20;16.30;;;;;;;;;;139266;1189;96799;-77
2021/10/30 03:47:47;;;;;;;28.30;16.50;;;;;;;;;;139281;1190;96472;-75
2021/10/30 03:50:51;;;;;;;27.60;16.50;;;;;;;;;;139286;1189;96394;-77
2021/10/30 03:53:55;;;;;;;29.50;16.60;;;;;;;;;;139242;1190;97575;-77
2021/10/30 03:56:59;;;;;;;28.70;16.20;;;;;;;;;;139239;1190;96308;-77
2021/10/30 04:00:04;;;;;;;24.70;15.70;;;;;;;;;;139258;1196;97675;-77
2021/10/30 04:03:16;;;;;;;24.10;14.80;;;;;;;;;;139333;1196;97175;-76
2021/10/30 04:06:22;;;;;;;24.50;15.10;;;;;;;;;;139335;1190;96386;-76
2021/10/30 04:09:26;;;;;;;29.20;16.70;;;;;;;;;;139259;1190;96898;-74
2021/10/30 04:12:30;;;;;;;27.50;16.60;;;;;;;;;;139258;1188;96387;-76
2021/10/30 04:15:33;;;;;;;29.50;16.10;;;;;;;;;;139257;1189;97570;-76
2021/10/30 04:18:37;;;;;;;28.20;15.50;;;;;;;;;;139265;1190;96291;-77
2021/10/30 04:21:42;;;;;;;27.40;16.00;;;;;;;;;;139234;1189;97548;-77
2021/10/30 04:24:46;;;;;;;27.60;14.60;;;;;;;;;;139248;1190;96780;-77
2021/10/30 04:27:49;;;;;;;24.50;14.50;;;;;;;;;;139243;1196;97164;-76
2021/10/30 04:30:53;;;;;;;27.30;15.80;;;;;;;;;;139281;1190;97116;-76
2021/10/30 04:34:00;;;;;;;25.80;15.70;;;;;;;;;;139302;1190;96314;-75
2021/10/30 04:37:13;;;;;;;27.70;15.20;;;;;;;;;;139295;1190;96331;-74
2021/10/30 04:40:17;;;;;;;27.70;16.20;;;;;;;;;;139315;1190;96302;-74
2021/10/30 04:43:21;;;;;;;25.70;15.40;;;;;;;;;;139289;1196;96300;-77
2021/10/30 04:46:25;;;;;;;25.50;14.90;;;;;;;;;;139315;1194;97572;-76
2021/10/30 04:49:29;;;;;;;24.20;15.10;;;;;;;;;;139302;1190;96287;-76
2021/10/30 04:52:33;;;;;;;24.70;15.20;;;;;;;;;;139292;1191;96291;-75
2021/10/30 04:55:37;;;;;;;25.60;14.90;;;;;;;;;;139256;1189;96737;-75
2021/10/30 04:58:43;;;;;;;28.30;14.40;;;;;;;;;;139256;1196;97246;-76
2021/10/30 05:01:47;;;;;;;26.40;15.60;;;;;;;;;;139248;1190;96282;-74
2021/10/30 05:04:51;;;;;;;24.80;14.60;;;;;;;;;;139184;1190;96319;-76
2021/10/30 05:07:55;;;;;;;25.40;14.90;;;;;;;;;;139166;1190;96283;-75
2021/10/30 05:10:59;;;;;;;24.50;14.30;;;;;;;;;;139165;1189;96421;-74
2021/10/30 05:14:03;;;;;;;36.40;18.70;;;;;;;;;;139200;1190;97114;-74
2021/10/30 05:17:07;;;;;;;32.80;17.30;;;;;;;;;;139232;1190;97148;-77
2021/10/30 05:20:12;;;;;;;32.40;18.10;;;;;;;;;;139242;1190;97172;-74
2021/10/30 05:23:16;;;;;;;29.00;16.00;;;;;;;;;;139195;1190;97574;-74
2021/10/30 05:26:20;;;;;;;36.20;19.80;;;;;;;;;;139213;1190;97224;-75
2021/10/30 05:29:35;;;;;;;35.20;19.90;;;;;;;;;;139233;1189;96433;-76
2021/10/30 05:32:39;;;;;;;28.50;16.00;;;;;;;;;;139258;1190;96286;-77
2021/10/30 05:36:04;;;;;;;27.60;16.00;;;;;;;;;;139228;1190;96298;-76
2021/10/30 05:39:23;;;;;;;;;;;;;;;;;;139207;1189;96596;-76
2021/10/30 05:42:27;;;;;;;26.00;14.30;;;;;;;;;;139286;1184;96918;-76
2021/10/30 05:45:31;;;;;;;24.70;14.90;;;;;;;;;;139152;1190;96292;-76
2021/10/30 05:48:36;;;;;;;25.60;16.20;;;;;;;;;;139248;1196;97549;-84
2021/10/30 05:51:40;;;;;;;24.60;15.70;;;;;;;;;;139218;1196;97170;-79
2021/10/30 05:54:43;;;;;;;27.00;15.10;;;;;;;;;;139512;1188;96310;-77
2021/10/30 05:57:47;;;;;;;28.10;16.00;;;;;;;;;;139434;1189;96966;-76
2021/10/30 06:00:51;;;;;;;25.10;14.30;;;;;;;;;;139359;1189;97569;-76
2021/10/30 06:03:55;;;;;;;26.80;14.60;;;;;;;;;;139495;1190;96295;-77
2021/10/30 06:07:00;;;;;;;30.70;16.50;;;;;;;;;;139384;1191;96279;-77
2021/10/30 06:10:04;;;;;;;30.20;16.90;;;;;;;;;;139474;1195;97580;-79
2021/10/30 06:13:08;;;;;;;30.10;16.50;;;;;;;;;;139393;1190;96924;-76
2021/10/30 06:16:12;;;;;;;27.60;16.10;;;;;;;;;;139438;1195;97178;-74
2021/10/30 06:19:16;;;;;;;28.30;16.90;;;;;;;;;;139417;1189;96385;-74
2021/10/30 06:22:21;;;;;;;25.70;15.10;;;;;;;;;;139366;1189;96288;-77
2021/10/30 06:25:25;;;;;;;27.20;15.60;;;;;;;;;;139374;1189;96370;-79
2021/10/30 06:28:28;;;;;;;26.80;15.60;;;;;;;;;;139373;1190;96351;-74
2021/10/30 06:31:32;;;;;;;26.20;16.20;;;;;;;;;;139411;1190;96440;-77
2021/10/30 06:34:36;;;;;;;27.90;15.90;;;;;;;;;;139383;1190;96452;-73
2021/10/30 06:37:40;;;;;;;23.80;14.90;;;;;;;;;;139958;1190;96630;-72
2021/10/30 06:40:44;;;;;;;24.50;14.80;;;;;;;;;;139587;1189;96384;-74
2021/10/30 06:43:48;;;;;;;24.80;13.90;;;;;;;;;;139328;1189;97202;-75
2021/10/30 06:46:53;;;;;;;20.40;12.30;;;;;;;;;;139330;1190;96371;-75
2021/10/30 06:49:58;;;;;;;27.10;14.70;;;;;;;;;;139361;1190;96370;-79
2021/10/30 06:53:02;;;;;;;24.40;14.60;;;;;;;;;;139439;1195;97553;-79
2021/10/30 06:56:08;;;;;;;24.40;15.20;;;;;;;;;;139482;1190;97206;-74
2021/10/30 06:59:12;;;;;;;26.00;15.80;;;;;;;;;;139441;1190;96303;-78
2021/10/30 07:02:16;;;;;;;22.20;14.00;;;;;;;;;;139445;1195;96406;-78
2021/10/30 07:05:20;;;;;;;22.90;14.00;;;;;;;;;;139407;1190;96315;-79
2021/10/30 07:08:25;;;;;;;22.40;13.70;;;;;;;;;;139474;1190;97621;-80
2021/10/30 07:11:29;;;;;;;22.40;13.30;;;;;;;;;;139349;1190;96370;-79
2021/10/30 07:14:33;;;;;;;22.70;13.60;;;;;;;;;;139400;1190;96318;-77
2021/10/30 07:17:37;;;;;;;20.50;13.00;;;;;;;;;;139419;1189;96385;-79
2021/10/30 07:20:41;;;;;;;21.50;12.80;;;;;;;;;;139400;1189;96292;-77
2021/10/30 07:23:44;;;;;;;20.20;12.70;;;;;;;;;;139517;1189;97676;-80
2021/10/30 07:26:48;;;;;;;20.30;12.30;;;;;;;;;;139603;1191;96296;-79
2021/10/30 07:29:52;;;;;;;18.20;12.60;;;;;;;;;;139937;1189;96301;-78
2021/10/30 07:32:56;;;;;;;19.20;12.90;;;;;;;;;;139464;1188;96285;-78
2021/10/30 07:36:00;;;;;;;19.70;12.50;;;;;;;;;;139408;1190;96494;-79
2021/10/30 07:39:04;;;;;;;18.20;11.70;;;;;;;;;;139408;1191;96314;-78
2021/10/30 07:42:08;;;;;;;16.60;11.60;;;;;;;;;;139348;1190;96409;-79
2021/10/30 07:45:12;;;;;;;21.90;12.80;;;;;;;;;;139499;1191;96293;-78
2021/10/30 07:48:16;;;;;;;19.50;12.60;;;;;;;;;;139322;1189;96391;-78
2021/10/30 07:51:21;;;;;;;20.10;12.00;;;;;;;;;;139383;1188;96745;-78
2021/10/30 07:54:25;;;;;;;20.80;12.10;;;;;;;;;;139391;1190;97462;-79
2021/10/30 07:57:29;;;;;;;20.30;11.70;;;;;;;;;;139339;1190;97547;-79
2021/10/30 08:00:33;;;;;;;18.90;12.60;;;;;;;;;;139345;1190;96395;-78
2021/10/30 08:03:37;;;;;;;20.60;12.40;;;;;;;;;;139284;1194;97564;-79
2021/10/30 08:06:40;;;;;;;20.60;12.70;;;;;;;;;;139296;1190;96376;-78
2021/10/30 08:09:45;;;;;;;21.30;12.50;;;;;;;;;;139368;1190;96276;-78
2021/10/30 08:12:48;;;;;;;20.90;12.70;;;;;;;;;;139401;1189;96292;-78
2021/10/30 08:15:52;;;;;;;19.40;12.00;;;;;;;;;;139277;1189;96360;-79
2021/10/30 08:18:56;;;;;;;19.10;12.50;;;;;;;;;;139272;1189;96290;-80
2021/10/30 08:22:00;;;;;;;20.60;12.90;;;;;;;;;;139379;1190;97146;-78
2021/10/30 08:25:04;;;;;;;19.40;12.10;;;;;;;;;;139311;1190;96292;-77
2021/10/30 08:28:08;;;;;;;21.30;12.70;;;;;;;;;;139292;1190;96377;-76
2021/10/30 08:31:12;;;;;;;21.20;12.80;;;;;;;;;;139395;1190;97592;-78
2021/10/30 08:34:16;;;;;;;20.90;13.40;;;;;;;;;;139311;1195;97129;-79
2021/10/30 08:37:19;;;;;;;19.30;12.50;;;;;;;;;;139308;1190;96337;-78
2021/10/30 08:40:23;;;;;;;22.50;14.10;;;;;;;;;;139390;1190;96430;-78
2021/10/30 08:43:28;;;;;;;19.50;11.60;;;;;;;;;;139363;1190;96263;-79
2021/10/30 08:46:32;;;;;;;17.50;11.40;;;;;;;;;;139372;1189;97141;-77
2021/10/30 08:49:37;;;;;;;17.80;11.70;;;;;;;;;;139394;1190;97186;-78
2021/10/30 08:52:41;;;;;;;17.30;11.70;;;;;;;;;;139349;1190;96350;-77
2021/10/30 08:55:44;;;;;;;22.20;11.90;;;;;;;;;;139399;1190;96315;-77
2021/10/30 08:58:48;;;;;;;19.50;12.00;;;;;;;;;;139342;1189;96385;-77
2021/10/30 09:01:53;;;;;;;17.20;12.10;;;;;;;;;;139425;1188;97096;-77
2021/10/30 09:05:12;;;;;;;17.80;11.20;;;;;;;;;;139346;1190;97553;-79
2021/10/30 09:08:17;;;;;;;16.90;11.50;;;;;;;;;;139323;1195;97546;-78
2021/10/30 09:11:27;;;;;;;15.90;10.90;;;;;;;;;;139363;1188;96275;-79
2021/10/30 09:14:31;;;;;;;14.90;10.40;;;;;;;;;;139305;1189;97550;-78
2021/10/30 09:17:35;;;;;;;16.30;10.60;;;;;;;;;;139297;1189;96293;-78
2021/10/30 09:20:39;;;;;;;17.80;10.80;;;;;;;;;;139321;1190;96365;-78
2021/10/30 09:23:44;;;;;;;17.30;10.60;;;;;;;;;;139321;1190;96706;-78
2021/10/30 09:26:59;;;;;;;15.10;10.20;;;;;;;;;;139323;1190;97546;-79
2021/10/30 09:30:04;;;;;;;17.40;11.40;;;;;;;;;;139302;1190;96279;-78
2021/10/30 09:33:09;;;;;;;18.30;10.50;;;;;;;;;;139284;1190;96331;-80
2021/10/30 09:36:13;;;;;;;16.30;10.90;;;;;;;;;;139368;1190;97545;-77
2021/10/30 09:39:18;;;;;;;18.90;11.70;;;;;;;;;;139469;1190;96418;-79
2021/10/30 09:42:25;;;;;;;17.00;11.20;;;;;;;;;;139526;1190;96283;-80
2021/10/30 09:45:29;;;;;;;19.00;12.30;;;;;;;;;;139459;1190;97661;-76
2021/10/30 09:48:40;;;;;;;21.50;12.10;;;;;;;;;;139398;1191;96304;-78
2021/10/30 09:51:44;;;;;;;17.70;11.10;;;;;;;;;;139393;1189;97596;-79
2021/10/30 09:54:48;;;;;;;18.20;11.90;;;;;;;;;;139384;1190;96410;-77
2021/10/30 09:57:59;;;;;;;17.40;11.00;;;;;;;;;;139325;1189;96395;-77
2021/10/30 10:01:04;;;;;;;14.20;10.20;;;;;;;;;;139424;1180;97164;-75
2021/10/30 10:04:11;;;;;;;16.50;10.30;;;;;;;;;;139385;1180;96392;-79
2021/10/30 10:07:16;;;;;;;16.80;11.00;;;;;;;;;;139464;1188;97103;-78
2021/10/30 10:10:21;;;;;;;18.10;11.20;;;;;;;;;;139475;1189;97578;-78
2021/10/30 10:13:25;;;;;;;20.60;13.20;;;;;;;;;;139290;1189;96352;-78
2021/10/30 10:16:29;;;;;;;21.30;12.70;;;;;;;;;;139354;1190;96386;-77
2021/10/30 10:19:33;;;;;;;22.70;13.60;;;;;;;;;;139341;1190;96315;-76
2021/10/30 10:22:37;;;;;;;23.90;14.60;;;;;;;;;;139341;1189;96341;-78
2021/10/30 10:25:48;;;;;;;22.50;13.70;;;;;;;;;;139337;1190;97698;-78
2021/10/30 10:29:01;;;;;;;20.00;13.00;;;;;;;;;;139298;1189;97155;-78
2021/10/30 10:32:06;;;;;;;17.90;11.80;;;;;;;;;;139321;1189;97146;-79
2021/10/30 10:35:15;;;;;;;21.70;13.60;;;;;;;;;;139347;1190;96310;-78
2021/10/30 10:38:40;;;;;;;20.00;12.70;;;;;;;;;;139322;1189;97544;-80
2021/10/30 10:42:04;;;;;;;15.90;10.90;;;;;;;;;;139326;1190;97581;-78
2021/10/30 10:45:08;;;;;;;19.10;10.90;;;;;;;;;;139356;1190;96595;-78
2021/10/30 10:48:13;;;;;;;17.50;11.40;;;;;;;;;;139453;1190;97153;-79
2021/10/30 10:51:22;;;;;;;20.70;13.00;;;;;;;;;;139380;1190;96424;-78
2021/10/30 10:54:26;;;;;;;30.70;17.60;;;;;;;;;;139239;1190;96309;-78
2021/10/30 10:57:30;;;;;;;39.10;20.10;;;;;;;;;;139229;1190;97701;-79
2021/10/30 11:00:34;;;;;;;26.60;16.40;;;;;;;;;;139253;1189;97171;-77
2021/10/30 11:03:41;;;;;;;20.10;13.60;;;;;;;;;;139257;1190;96476;-76
2021/10/30 11:06:46;;;;;;;19.70;12.20;;;;;;;;;;139151;1190;96998;-75
2021/10/30 11:09:52;;;;;;;20.50;13.20;;;;;;;;;;139241;1182;96304;-74
2021/10/30 11:13:05;;;;;;;19.60;14.30;;;;;;;;;;139270;1189;97548;-77
2021/10/30 11:16:11;;;;;;;17.70;13.00;;;;;;;;;;139265;1196;97248;-78
2021/10/30 11:19:34;;;;;;;21.30;13.20;;;;;;;;;;139237;1189;96775;-79
2021/10/30 11:22:52;;;;;;;20.90;14.60;;;;;;;;;;139364;1182;97562;-81
2021/10/30 11:25:56;;;;;;;21.50;14.20;;;;;;;;;;139316;1189;96983;-79
2021/10/30 11:29:04;;;;;;;23.20;15.30;;;;;;;;;;139323;1189;97558;-81
2021/10/30 11:32:08;;;;;;;20.80;13.80;;;;;;;;;;139281;1190;96706;-81
2021/10/30 11:35:13;;;;;;;21.20;14.10;;;;;;;;;;139223;1190;97212;-75
2021/10/30 11:38:17;;;;;;;21.80;14.50;;;;;;;;;;139263;1190;96311;-76
2021/10/30 11:41:21;;;;;;;20.60;14.10;;;;;;;;;;139251;1190;96279;-76
2021/10/30 11:44:25;;;;;;;20.40;13.50;;;;;;;;;;139206;1190;97547;-76
2021/10/30 11:47:30;;;;;;;21.00;13.90;;;;;;;;;;139652;1189;97198;-75
2021/10/30 11:50:34;;;;;;;21.30;14.10;;;;;;;;;;139278;1191;97588;-77
2021/10/30 11:53:39;;;;;;;19.80;12.70;;;;;;;;;;139388;1188;96658;-74
2021/10/30 11:56:44;;;;;;;17.70;12.90;;;;;;;;;;139346;1190;96700;-78
2021/10/30 11:59:57;;;;;;;19.20;13.50;;;;;;;;;;139402;1180;96308;-78
2021/10/30 12:03:04;;;;;;;22.50;15.20;;;;;;;;;;139333;1190;96266;-78
2021/10/30 12:06:08;;;;;;;18.30;12.40;;;;;;;;;;139105;1190;96989;-76
2021/10/30 12:09:16;;;;;;;26.90;18.70;;;;;;;;;;139118;1190;96285;-77
2021/10/30 12:12:25;;;;;;;21.10;14.10;;;;;;;;;;139151;1190;97562;-76
2021/10/30 12:15:29;;;;;;;20.20;13.60;;;;;;;;;;139117;1190;97581;-75
2021/10/30 12:18:33;;;;;;;24.70;17.10;;;;;;;;;;139160;1182;97148;-73
2021/10/30 12:21:37;;;;;;;25.10;17.00;;;;;;;;;;139093;1190;96405;-75
2021/10/30 12:24:42;;;;;;;15.60;12.00;;;;;;;;;;139170;1190;96295;-75
2021/10/30 12:27:53;;;;;;;18.20;12.10;;;;;;;;;;139138;1190;96348;-79
2021/10/30 12:30:57;;;;;;;14.90;10.80;;;;;;;;;;139130;1190;96288;-76
2021/10/30 12:34:01;;;;;;;19.60;14.30;;;;;;;;;;139194;1189;97556;-75
2021/10/30 12:37:05;;;;;;;17.70;12.00;;;;;;;;;;139237;1189;97553;-76
2021/10/30 12:40:10;;;;;;;16.90;11.10;;;;;;;;;;139267;1182;97156;-75
2021/10/30 12:43:15;;;;;;;20.60;14.50;;;;;;;;;;139262;1190;96348;-77
2021/10/30 12:46:18;;;;;;;22.40;15.10;;;;;;;;;;139303;1196;96977;-80
2021/10/30 12:49:26;;;;;;;19.80;13.70;;;;;;;;;;139179;1190;96379;-75
2021/10/30 12:52:40;;;;;;;19.70;12.90;;;;;;;;;;139270;1190;97356;-76
2021/10/30 12:55:58;;;;;;;19.50;13.40;;;;;;;;;;139265;1190;96381;-79
2021/10/30 12:59:03;;;;;;;19.10;12.80;;;;;;;;;;139249;1190;97607;-76
2021/10/30 13:02:07;;;;;;;20.00;13.70;;;;;;;;;;139727;1189;96319;-77
2021/10/30 13:05:15;;;;;;;16.20;12.40;;;;;;;;;;139296;1189;97557;-76
2021/10/30 13:08:19;;;;;;;17.50;11.80;;;;;;;;;;139343;1190;97146;-76
2021/10/30 13:11:24;;;;;;;18.70;12.60;;;;;;;;;;139211;1189;96310;-76
2021/10/30 13:14:28;;;;;;;18.30;12.30;;;;;;;;;;139194;1190;96318;-77
2021/10/30 13:17:32;;;;;;;20.60;13.20;;;;;;;;;;139351;1190;97107;-77
2021/10/30 13:20:40;;;;;;;19.20;12.80;;;;;;;;;;139376;1190;96309;-77
2021/10/30 13:23:45;;;;;;;16.10;10.90;;;;;;;;;;139410;1189;96322;-77
2021/10/30 13:26:49;;;;;;;21.30;13.50;;;;;;;;;;139493;1190;97175;-79
2021/10/30 13:29:53;;;;;;;87.70;79.00;;;;;;;;;;139459;1189;96351;-80
2021/10/30 13:32:57;;;;;;;27.30;24.10;;;;;;;;;;139640;1189;96317;-80
2021/10/30 13:36:01;;;;;;;49.70;32.90;;;;;;;;;;139680;1189;96299;-79
2021/10/30 13:39:06;;;;;;;718.20;556.80;;;;;;;;;;139532;1189;96349;-79
2021/10/30 13:42:10;;;;;;;144.90;98.50;;;;;;;;;;139474;1174;96399;-78
2021/10/30 13:45:14;;;;;;;162.30;89.10;;;;;;;;;;139323;1189;96335;-78
2021/10/30 13:48:18;;;;;;;50.90;31.80;;;;;;;;;;139245;1190;96316;-79
2021/10/30 13:51:23;;;;;;;36.60;24.60;;;;;;;;;;139294;1190;96974;-75
2021/10/30 13:54:27;;;;;;;26.50;18.00;;;;;;;;;;139185;1190;97242;-77
2021/10/30 13:57:31;;;;;;;34.30;22.60;;;;;;;;;;139530;1189;97154;-85
2021/10/30 14:00:37;;;;;;;33.30;22.30;;;;;;;;;;139504;1189;96633;-87
2021/10/30 14:03:41;;;;;;;26.00;15.80;;;;;;;;;;139184;1190;97256;-85
2021/10/30 14:06:45;;;;;;;21.70;13.40;;;;;;;;;;139395;1190;96687;-90
2021/10/30 14:09:49;;;;;;;20.30;13.40;;;;;;;;;;140017;1190;97178;-86
2021/10/30 14:12:52;;;;;;;21.10;13.50;;;;;;;;;;139263;1190;97560;-83
2021/10/30 14:15:56;;;;;;;19.40;12.90;;;;;;;;;;139595;1190;96275;-85
2021/10/30 14:19:00;;;;;;;66.40;33.10;;;;;;;;;;139440;1189;97698;-83
2021/10/30 14:22:04;;;;;;;25.00;16.40;;;;;;;;;;139647;1188;96534;-87
2021/10/30 14:25:09;;;;;;;23.20;13.60;;;;;;;;;;139619;1195;97563;-80
2021/10/30 14:28:13;;;;;;;24.00;13.00;;;;;;;;;;139484;1188;96896;-82
2021/10/30 14:31:18;;;;;;;22.80;13.40;;;;;;;;;;139475;1190;96290;-74
2021/10/30 14:34:22;;;;;;;21.70;13.20;;;;;;;;;;139414;1190;97556;-80
2021/10/30 14:37:26;;;;;;;21.00;13.20;;;;;;;;;;139358;1190;96662;-76
2021/10/30 14:40:29;;;;;;;21.40;12.30;;;;;;;;;;139451;1190;97566;-87
2021/10/30 14:43:33;;;;;;;20.10;13.40;;;;;;;;;;139403;1193;97620;-79
2021/10/30 14:46:37;;;;;;;20.80;12.90;;;;;;;;;;139521;1189;97553;-75
2021/10/30 14:49:41;;;;;;;22.80;12.40;;;;;;;;;;139338;1188;96289;-75
2021/10/30 14:52:46;;;;;;;20.90;13.00;;;;;;;;;;139387;1189;97557;-81
2021/10/30 14:55:50;;;;;;;20.60;13.10;;;;;;;;;;139562;1189;96312;-84
2021/10/30 14:58:53;;;;;;;22.60;13.20;;;;;;;;;;139758;1189;96305;-82
2021/10/30 15:01:57;;;;;;;22.30;12.90;;;;;;;;;;139575;1189;96358;-85
2021/10/30 15:05:01;;;;;;;24.70;14.50;;;;;;;;;;139896;1190;97589;-79
2021/10/30 15:08:06;;;;;;;22.50;14.90;;;;;;;;;;139460;1189;97150;-81
2021/10/30 15:11:11;;;;;;;25.50;15.60;;;;;;;;;;139831;1189;97557;-78
2021/10/30 15:14:15;;;;;;;27.60;16.00;;;;;;;;;;139631;1189;96294;-79
2021/10/30 15:17:19;;;;;;;28.50;16.70;;;;;;;;;;139557;1189;97566;-79
2021/10/30 15:20:22;;;;;;;31.40;18.30;;;;;;;;;;139987;1189;96264;-80
2021/10/30 15:23:26;;;;;;;29.50;17.00;;;;;;;;;;139588;1192;96349;-77
2021/10/30 15:26:30;;;;;;;29.60;17.40;;;;;;;;;;139597;1190;97564;-81
2021/10/30 15:29:34;;;;;;;32.10;18.60;;;;;;;;;;139594;1188;97595;-77
2021/10/30 15:32:39;;;;;;;29.40;17.50;;;;;;;;;;139496;1190;96464;-80
2021/10/30 15:35:43;;;;;;;27.60;17.30;;;;;;;;;;139413;1189;97562;-80
2021/10/30 15:38:47;;;;;;;27.70;16.70;;;;;;;;;;139409;1189;97540;-78
2021/10/30 15:41:51;;;;;;;30.60;18.20;;;;;;;;;;139320;1189;96305;-78
2021/10/30 15:44:55;;;;;;;27.50;17.40;;;;;;;;;;139401;1189;96335;-79
2021/10/30 15:47:59;;;;;;;28.90;17.40;;;;;;;;;;139277;1189;96383;-81
2021/10/30 15:51:04;;;;;;;26.90;16.00;;;;;;;;;;139342;1189;96316;-79
2021/10/30 15:54:08;;;;;;;29.90;16.30;;;;;;;;;;139322;1189;96313;-81
2021/10/30 15:57:12;;;;;;;27.00;16.60;;;;;;;;;;139477;1193;97589;-81
2021/10/30 16:00:16;;;;;;;27.70;15.90;;;;;;;;;;139478;1189;96308;-83
2021/10/30 16:03:21;;;;;;;26.70;16.20;;;;;;;;;;139372;1189;96283;-80
2021/10/30 16:06:25;;;;;;;27.30;16.60;;;;;;;;;;139365;1189;97103;-80
2021/10/30 16:09:29;;;;;;;30.30;16.90;;;;;;;;;;139362;1190;97113;-80
2021/10/30 16:12:33;;;;;;;26.40;16.40;;;;;;;;;;139481;1190;96763;-79
2021/10/30 16:15:37;;;;;;;26.10;16.20;;;;;;;;;;139211;1190;96775;-79
2021/10/30 16:18:41;;;;;;;27.00;16.00;;;;;;;;;;139200;1189;96388;-78
2021/10/30 16:21:45;;;;;;;35.90;19.70;;;;;;;;;;139211;1190;96304;-79
2021/10/30 16:24:49;;;;;;;30.60;19.30;;;;;;;;;;139265;1189;96370;-84
2021/10/30 16:27:53;;;;;;;36.30;23.90;;;;;;;;;;139255;1190;96291;-79
2021/10/30 16:30:57;;;;;;;40.80;22.60;;;;;;;;;;139384;1195;97147;-84
2021/10/30 16:34:06;;;;;;;71.00;30.70;;;;;;;;;;139319;1189;96438;-81
2021/10/30 16:37:10;;;;;;;58.80;27.60;;;;;;;;;;139223;1190;97179;-81
2021/10/30 16:40:14;;;;;;;50.60;27.40;;;;;;;;;;139306;1190;96287;-86
2021/10/30 16:43:21;;;;;;;42.50;22.20;;;;;;;;;;139380;1193;97239;-84
2021/10/30 16:46:25;;;;;;;53.30;27.20;;;;;;;;;;139257;1189;96376;-85
2021/10/30 16:49:30;;;;;;;56.80;31.10;;;;;;;;;;139338;1189;96283;-81
2021/10/30 16:52:34;;;;;;;41.20;22.30;;;;;;;;;;139503;1190;97582;-82
2021/10/30 16:55:49;;;;;;;33.90;20.70;;;;;;;;;;139473;1189;96292;-86
2021/10/30 16:58:53;;;;;;;44.30;24.40;;;;;;;;;;139541;1189;96271;-84
2021/10/30 17:01:57;;;;;;;36.70;19.60;;;;;;;;;;139574;1189;97546;-81
2021/10/30 17:05:01;;;;;;;58.40;26.90;;;;;;;;;;139670;1190;96276;-84
2021/10/30 17:08:05;;;;;;;92.90;37.80;;;;;;;;;;139790;1189;96980;-85
2021/10/30 17:11:10;;;;;;;74.50;32.20;;;;;;;;;;139532;1189;97545;-84
2021/10/30 17:14:15;;;;;;;89.20;38.20;;;;;;;;;;139527;1189;97546;-86
2021/10/30 17:17:19;;;;;;;84.00;37.20;;;;;;;;;;139773;1189;97249;-80
2021/10/30 17:20:23;;;;;;;72.40;35.50;;;;;;;;;;139485;1182;97182;-81
2021/10/30 17:23:26;;;;;;;50.20;26.40;;;;;;;;;;139513;1190;97161;-87
2021/10/30 17:26:30;;;;;;;97.40;43.40;;;;;;;;;;139544;1189;96369;-81
2021/10/30 17:29:34;;;;;;;93.60;41.90;;;;;;;;;;139673;1189;97546;-86
2021/10/30 17:32:38;;;;;;;79.40;40.00;;;;;;;;;;140030;1190;96395;-79
2021/10/30 17:35:42;;;;;;;61.80;30.20;;;;;;;;;;139457;1189;96283;-87
2021/10/30 17:38:46;;;;;;;60.90;31.80;;;;;;;;;;139559;1190;96757;-87